sensor_id;sensor_type;location;lat;lon;timestamp;temperature;humidity
61386;DHT22;47256;18.904;-99.054;2023-04-28T14:37:48;25.20;60.50
61386;DHT22;47256;18.904;-99.054;2023-04-28T14:40:16;25.10;61.70
61386;DHT22;47256;18.904;-99.054;2023-04-28T14:42:43;25.20;61.90
61386;DHT22;47256;18.904;-99.054;2023-04-28T14:45:11;25.30;62.80
61386;DHT22;47256;18.904;-99.054;2023-04-28T14:47:38;25.50;61.90
61386;DHT22;47256;18.904;-99.054;2023-04-28T14:50:07;25.70;62.50
61386;DHT22;47256;18.904;-99.054;2023-04-28T14:52:34;25.90;62.00
61386;DHT22;47256;18.904;-99.054;2023-04-28T14:55:01;26.10;61.90
61386;DHT22;47256;18.904;-99.054;2023-04-28T14:57:30;26.30;60.10
61386;DHT22;47256;18.904;-99.054;2023-04-28T15:00:02;26.40;61.40
61386;DHT22;47256;18.904;-99.054;2023-04-28T15:02:31;26.60;61.80
61386;DHT22;47256;18.904;-99.054;2023-04-28T15:04:59;26.70;61.90
61386;DHT22;47256;18.904;-99.054;2023-04-28T15:07:26;26.80;62.40
61386;DHT22;47256;18.904;-99.054;2023-04-28T15:10:00;26.90;62.80
61386;DHT22;47256;18.904;-99.054;2023-04-28T15:12:29;27.00;62.60
61386;DHT22;47256;18.904;-99.054;2023-04-28T15:14:57;27.20;62.50
61386;DHT22;47256;18.904;-99.054;2023-04-28T15:17:25;27.30;62.70
61386;DHT22;47256;18.904;-99.054;2023-04-28T15:19:52;27.40;63.60
61386;DHT22;47256;18.904;-99.054;2023-04-28T15:22:19;27.50;62.90
61386;DHT22;47256;18.904;-99.054;2023-04-28T15:24:47;27.60;62.80
61386;DHT22;47256;18.904;-99.054;2023-04-28T15:27:15;27.70;62.70
61386;DHT22;47256;18.904;-99.054;2023-04-28T15:29:42;27.80;62.50
61386;DHT22;47256;18.904;-99.054;2023-04-28T15:32:11;27.90;62.20
61386;DHT22;47256;18.904;-99.054;2023-04-28T15:34:39;27.90;61.40
61386;DHT22;47256;18.904;-99.054;2023-04-28T15:40:08;28.10;62.20
61386;DHT22;47256;18.904;-99.054;2023-04-28T15:42:36;28.30;61.90
61386;DHT22;47256;18.904;-99.054;2023-04-28T15:45:06;28.40;62.30
61386;DHT22;47256;18.904;-99.054;2023-04-28T15:47:36;28.50;62.80
61386;DHT22;47256;18.904;-99.054;2023-04-28T15:50:05;28.60;64.60
61386;DHT22;47256;18.904;-99.054;2023-04-28T15:52:32;28.70;64.70
61386;DHT22;47256;18.904;-99.054;2023-04-28T15:54:59;28.80;63.40
61386;DHT22;47256;18.904;-99.054;2023-04-28T15:57:27;28.90;62.80
61386;DHT22;47256;18.904;-99.054;2023-04-28T15:59:55;28.90;63.20
61386;DHT22;47256;18.904;-99.054;2023-04-28T16:02:27;29.10;62.90
61386;DHT22;47256;18.904;-99.054;2023-04-28T16:04:55;29.10;63.30
61386;DHT22;47256;18.904;-99.054;2023-04-28T16:07:23;29.20;62.80
61386;DHT22;47256;18.904;-99.054;2023-04-28T16:09:51;29.30;60.00
61386;DHT22;47256;18.904;-99.054;2023-04-28T16:12:20;29.30;60.10
61386;DHT22;47256;18.904;-99.054;2023-04-28T16:14:48;29.40;61.20
61386;DHT22;47256;18.904;-99.054;2023-04-28T16:17:16;29.50;60.80
61386;DHT22;47256;18.904;-99.054;2023-04-28T16:19:43;29.60;60.90
61386;DHT22;47256;18.904;-99.054;2023-04-28T16:22:11;29.70;60.70
61386;DHT22;47256;18.904;-99.054;2023-04-28T16:24:38;29.90;60.80
61386;DHT22;47256;18.904;-99.054;2023-04-28T16:27:11;30.00;59.80
61386;DHT22;47256;18.904;-99.054;2023-04-28T16:29:39;30.20;59.40
61386;DHT22;47256;18.904;-99.054;2023-04-28T16:32:07;30.30;59.60
61386;DHT22;47256;18.904;-99.054;2023-04-28T16:34:35;30.50;58.10
61386;DHT22;47256;18.904;-99.054;2023-04-28T16:37:03;30.40;57.80
61386;DHT22;47256;18.904;-99.054;2023-04-28T16:39:31;30.50;57.90
61386;DHT22;47256;18.904;-99.054;2023-04-28T16:42:00;30.50;56.60
61386;DHT22;47256;18.904;-99.054;2023-04-28T16:44:30;30.60;58.50
61386;DHT22;47256;18.904;-99.054;2023-04-28T16:46:59;30.70;57.20
61386;DHT22;47256;18.904;-99.054;2023-04-28T16:49:27;30.90;57.50
61386;DHT22;47256;18.904;-99.054;2023-04-28T16:54:27;31.10;56.70
61386;DHT22;47256;18.904;-99.054;2023-04-28T16:56:55;31.20;56.10
61386;DHT22;47256;18.904;-99.054;2023-04-28T16:59:24;31.40;56.40
61386;DHT22;47256;18.904;-99.054;2023-04-28T17:02:01;31.60;56.40
61386;DHT22;47256;18.904;-99.054;2023-04-28T17:04:29;31.70;56.40
61386;DHT22;47256;18.904;-99.054;2023-04-28T17:06:57;31.70;56.80
61386;DHT22;47256;18.904;-99.054;2023-04-28T17:09:25;31.90;56.70
61386;DHT22;47256;18.904;-99.054;2023-04-28T17:11:53;32.10;56.10
61386;DHT22;47256;18.904;-99.054;2023-04-28T17:14:22;32.20;56.60
61386;DHT22;47256;18.904;-99.054;2023-04-28T17:16:49;32.30;54.90
61386;DHT22;47256;18.904;-99.054;2023-04-28T17:19:16;32.30;55.50
61386;DHT22;47256;18.904;-99.054;2023-04-28T17:21:44;32.40;54.00
61386;DHT22;47256;18.904;-99.054;2023-04-28T17:24:12;32.50;53.70
61386;DHT22;47256;18.904;-99.054;2023-04-28T17:26:40;32.60;54.40
61386;DHT22;47256;18.904;-99.054;2023-04-28T17:29:07;32.70;52.00
61386;DHT22;47256;18.904;-99.054;2023-04-28T17:31:34;32.70;52.00
61386;DHT22;47256;18.904;-99.054;2023-04-28T17:34:02;32.80;51.80
61386;DHT22;47256;18.904;-99.054;2023-04-28T17:36:29;33.00;51.10
61386;DHT22;47256;18.904;-99.054;2023-04-28T17:39:00;33.00;50.70
61386;DHT22;47256;18.904;-99.054;2023-04-28T17:41:28;33.10;49.20
61386;DHT22;47256;18.904;-99.054;2023-04-28T17:43:56;33.20;48.40
61386;DHT22;47256;18.904;-99.054;2023-04-28T17:46:27;33.40;48.00
61386;DHT22;47256;18.904;-99.054;2023-04-28T17:48:54;33.60;46.40
61386;DHT22;47256;18.904;-99.054;2023-04-28T17:51:22;33.80;48.40
61386;DHT22;47256;18.904;-99.054;2023-04-28T17:53:54;33.90;49.80
61386;DHT22;47256;18.904;-99.054;2023-04-28T17:56:24;34.10;50.30
61386;DHT22;47256;18.904;-99.054;2023-04-28T17:58:52;34.20;50.40
61386;DHT22;47256;18.904;-99.054;2023-04-28T18:01:20;34.40;49.30
61386;DHT22;47256;18.904;-99.054;2023-04-28T18:03:48;34.50;47.90
61386;DHT22;47256;18.904;-99.054;2023-04-28T18:06:17;34.40;47.70
61386;DHT22;47256;18.904;-99.054;2023-04-28T18:08:49;34.40;48.60
61386;DHT22;47256;18.904;-99.054;2023-04-28T18:11:16;34.60;48.70
61386;DHT22;47256;18.904;-99.054;2023-04-28T18:13:46;34.80;48.10
61386;DHT22;47256;18.904;-99.054;2023-04-28T18:16:13;34.90;48.00
61386;DHT22;47256;18.904;-99.054;2023-04-28T18:18:41;34.90;47.40
61386;DHT22;47256;18.904;-99.054;2023-04-28T18:21:09;35.00;47.20
61386;DHT22;47256;18.904;-99.054;2023-04-28T18:23:38;35.10;46.30
61386;DHT22;47256;18.904;-99.054;2023-04-28T18:26:05;35.00;46.30
61386;DHT22;47256;18.904;-99.054;2023-04-28T18:28:32;35.00;45.10
61386;DHT22;47256;18.904;-99.054;2023-04-28T18:31:06;35.10;46.70
61386;DHT22;47256;18.904;-99.054;2023-04-28T18:33:33;35.20;45.60
61386;DHT22;47256;18.904;-99.054;2023-04-28T18:36:02;35.10;43.30
61386;DHT22;47256;18.904;-99.054;2023-04-28T18:38:31;34.90;44.90
61386;DHT22;47256;18.904;-99.054;2023-04-28T18:41:09;35.10;46.40
61386;DHT22;47256;18.904;-99.054;2023-04-28T18:43:37;35.20;43.60
61386;DHT22;47256;18.904;-99.054;2023-04-28T18:46:05;35.10;43.40
61386;DHT22;47256;18.904;-99.054;2023-04-28T18:48:34;35.20;46.70
61386;DHT22;47256;18.904;-99.054;2023-04-28T18:51:01;35.30;44.30
61386;DHT22;47256;18.904;-99.054;2023-04-28T18:53:29;35.20;42.30
61386;DHT22;47256;18.904;-99.054;2023-04-28T18:55:57;35.20;44.20
61386;DHT22;47256;18.904;-99.054;2023-04-28T18:58:25;35.20;42.70
61386;DHT22;47256;18.904;-99.054;2023-04-28T19:00:54;35.00;42.30
61386;DHT22;47256;18.904;-99.054;2023-04-28T19:03:22;35.10;42.20
61386;DHT22;47256;18.904;-99.054;2023-04-28T19:05:49;35.20;43.00
61386;DHT22;47256;18.904;-99.054;2023-04-28T19:08:17;35.30;43.70
61386;DHT22;47256;18.904;-99.054;2023-04-28T19:10:44;35.30;41.40
61386;DHT22;47256;18.904;-99.054;2023-04-28T19:13:19;35.40;41.50
61386;DHT22;47256;18.904;-99.054;2023-04-28T19:15:52;35.40;41.00
61386;DHT22;47256;18.904;-99.054;2023-04-28T19:18:20;35.40;40.60
61386;DHT22;47256;18.904;-99.054;2023-04-28T19:20:48;35.40;42.20
61386;DHT22;47256;18.904;-99.054;2023-04-28T19:23:18;35.50;40.70
61386;DHT22;47256;18.904;-99.054;2023-04-28T19:25:45;35.60;42.00
61386;DHT22;47256;18.904;-99.054;2023-04-28T19:28:13;35.90;40.70
61386;DHT22;47256;18.904;-99.054;2023-04-28T19:30:40;35.90;39.80
61386;DHT22;47256;18.904;-99.054;2023-04-28T19:33:08;36.00;40.80
61386;DHT22;47256;18.904;-99.054;2023-04-28T19:36:00;35.80;39.80
61386;DHT22;47256;18.904;-99.054;2023-04-28T19:38:37;35.70;39.40
61386;DHT22;47256;18.904;-99.054;2023-04-28T19:41:06;35.70;40.00
61386;DHT22;47256;18.904;-99.054;2023-04-28T19:43:33;35.70;39.70
61386;DHT22;47256;18.904;-99.054;2023-04-28T19:46:01;35.60;38.30
61386;DHT22;47256;18.904;-99.054;2023-04-28T19:48:28;35.60;39.50
61386;DHT22;47256;18.904;-99.054;2023-04-28T19:50:56;35.40;38.00
61386;DHT22;47256;18.904;-99.054;2023-04-28T19:53:23;35.40;38.30
61386;DHT22;47256;18.904;-99.054;2023-04-28T19:55:51;35.60;38.40
61386;DHT22;47256;18.904;-99.054;2023-04-28T19:58:18;35.60;38.30
61386;DHT22;47256;18.904;-99.054;2023-04-28T20:00:48;35.80;38.50
61386;DHT22;47256;18.904;-99.054;2023-04-28T20:03:15;36.00;39.10
61386;DHT22;47256;18.904;-99.054;2023-04-28T20:05:44;36.10;37.70
61386;DHT22;47256;18.904;-99.054;2023-04-28T20:08:16;36.20;37.10
61386;DHT22;47256;18.904;-99.054;2023-04-28T20:10:45;36.10;36.70
61386;DHT22;47256;18.904;-99.054;2023-04-28T20:13:14;36.00;35.30
61386;DHT22;47256;18.904;-99.054;2023-04-28T20:15:42;35.80;35.10
61386;DHT22;47256;18.904;-99.054;2023-04-28T20:18:09;35.90;37.40
61386;DHT22;47256;18.904;-99.054;2023-04-28T20:20:36;35.90;36.00
61386;DHT22;47256;18.904;-99.054;2023-04-28T20:23:04;35.80;35.60
61386;DHT22;47256;18.904;-99.054;2023-04-28T20:25:35;35.60;35.60
61386;DHT22;47256;18.904;-99.054;2023-04-28T20:28:02;35.80;37.10
61386;DHT22;47256;18.904;-99.054;2023-04-28T20:30:30;35.60;36.30
61386;DHT22;47256;18.904;-99.054;2023-04-28T20:32:58;35.40;36.80
61386;DHT22;47256;18.904;-99.054;2023-04-28T20:35:25;35.40;36.70
61386;DHT22;47256;18.904;-99.054;2023-04-28T20:37:53;35.50;36.60
61386;DHT22;47256;18.904;-99.054;2023-04-28T20:40:20;35.60;38.60
61386;DHT22;47256;18.904;-99.054;2023-04-28T20:42:49;35.70;37.80
61386;DHT22;47256;18.904;-99.054;2023-04-28T20:45:16;35.60;38.40
61386;DHT22;47256;18.904;-99.054;2023-04-28T20:47:44;35.50;38.10
61386;DHT22;47256;18.904;-99.054;2023-04-28T20:50:11;35.60;40.70
61386;DHT22;47256;18.904;-99.054;2023-04-28T20:52:38;35.60;39.80
61386;DHT22;47256;18.904;-99.054;2023-04-28T20:55:07;35.60;38.10
61386;DHT22;47256;18.904;-99.054;2023-04-28T20:57:35;35.40;38.40
61386;DHT22;47256;18.904;-99.054;2023-04-28T21:00:02;35.30;40.20
61386;DHT22;47256;18.904;-99.054;2023-04-28T21:02:31;35.40;37.00
61386;DHT22;47256;18.904;-99.054;2023-04-28T21:04:58;35.20;37.70
61386;DHT22;47256;18.904;-99.054;2023-04-28T21:07:26;35.10;38.10
61386;DHT22;47256;18.904;-99.054;2023-04-28T21:09:53;35.10;37.50
61386;DHT22;47256;18.904;-99.054;2023-04-28T21:12:22;35.00;37.80
61386;DHT22;47256;18.904;-99.054;2023-04-28T21:14:49;35.00;38.00
61386;DHT22;47256;18.904;-99.054;2023-04-28T21:17:17;35.00;37.50
61386;DHT22;47256;18.904;-99.054;2023-04-28T21:19:44;35.00;37.20
61386;DHT22;47256;18.904;-99.054;2023-04-28T21:22:11;35.10;37.00
61386;DHT22;47256;18.904;-99.054;2023-04-28T21:24:40;35.20;38.20
61386;DHT22;47256;18.904;-99.054;2023-04-28T21:27:09;35.10;37.80
61386;DHT22;47256;18.904;-99.054;2023-04-28T21:29:38;35.00;37.60
61386;DHT22;47256;18.904;-99.054;2023-04-28T21:32:20;35.00;38.50
61386;DHT22;47256;18.904;-99.054;2023-04-28T21:34:48;35.10;40.20
61386;DHT22;47256;18.904;-99.054;2023-04-28T21:37:16;35.20;39.10
61386;DHT22;47256;18.904;-99.054;2023-04-28T21:39:45;35.20;37.90
61386;DHT22;47256;18.904;-99.054;2023-04-28T21:42:12;35.10;38.30
61386;DHT22;47256;18.904;-99.054;2023-04-28T21:44:39;35.00;37.10
61386;DHT22;47256;18.904;-99.054;2023-04-28T21:47:07;35.00;39.80
61386;DHT22;47256;18.904;-99.054;2023-04-28T21:49:35;35.00;38.80
61386;DHT22;47256;18.904;-99.054;2023-04-28T21:52:02;35.10;38.90
61386;DHT22;47256;18.904;-99.054;2023-04-28T21:54:30;35.10;38.80
61386;DHT22;47256;18.904;-99.054;2023-04-28T21:56:57;35.00;37.80
61386;DHT22;47256;18.904;-99.054;2023-04-28T21:59:24;34.90;38.40
61386;DHT22;47256;18.904;-99.054;2023-04-28T22:01:52;34.80;38.00
61386;DHT22;47256;18.904;-99.054;2023-04-28T22:04:22;34.70;38.80
61386;DHT22;47256;18.904;-99.054;2023-04-28T22:06:49;34.70;38.80
61386;DHT22;47256;18.904;-99.054;2023-04-28T22:09:17;34.60;38.70
61386;DHT22;47256;18.904;-99.054;2023-04-28T22:11:44;34.50;38.90
61386;DHT22;47256;18.904;-99.054;2023-04-28T22:14:11;34.60;41.20
61386;DHT22;47256;18.904;-99.054;2023-04-28T22:16:38;34.70;41.10
61386;DHT22;47256;18.904;-99.054;2023-04-28T22:19:06;34.90;40.80
61386;DHT22;47256;18.904;-99.054;2023-04-28T22:21:34;35.00;40.10
61386;DHT22;47256;18.904;-99.054;2023-04-28T22:24:01;35.10;39.90
61386;DHT22;47256;18.904;-99.054;2023-04-28T22:26:28;35.20;38.90
61386;DHT22;47256;18.904;-99.054;2023-04-28T22:28:56;35.10;39.90
61386;DHT22;47256;18.904;-99.054;2023-04-28T22:31:23;35.00;38.20
61386;DHT22;47256;18.904;-99.054;2023-04-28T22:33:50;35.00;40.60
61386;DHT22;47256;18.904;-99.054;2023-04-28T22:36:17;35.10;39.40
61386;DHT22;47256;18.904;-99.054;2023-04-28T22:38:48;35.10;39.70
61386;DHT22;47256;18.904;-99.054;2023-04-28T22:41:15;35.10;40.80
61386;DHT22;47256;18.904;-99.054;2023-04-28T22:43:43;35.20;39.90
61386;DHT22;47256;18.904;-99.054;2023-04-28T22:46:10;35.10;40.60
61386;DHT22;47256;18.904;-99.054;2023-04-28T22:48:37;35.10;40.80
61386;DHT22;47256;18.904;-99.054;2023-04-28T22:51:05;35.00;39.90
61386;DHT22;47256;18.904;-99.054;2023-04-28T22:53:32;34.80;37.70
61386;DHT22;47256;18.904;-99.054;2023-04-28T22:56:00;34.70;37.40
61386;DHT22;47256;18.904;-99.054;2023-04-28T22:58:28;34.60;38.00
61386;DHT22;47256;18.904;-99.054;2023-04-28T23:00:59;34.50;37.10
61386;DHT22;47256;18.904;-99.054;2023-04-28T23:03:29;34.40;37.60
61386;DHT22;47256;18.904;-99.054;2023-04-28T23:05:58;34.40;37.90
61386;DHT22;47256;18.904;-99.054;2023-04-28T23:08:26;34.50;37.50
61386;DHT22;47256;18.904;-99.054;2023-04-28T23:10:54;34.50;37.50
61386;DHT22;47256;18.904;-99.054;2023-04-28T23:13:24;34.40;38.30
61386;DHT22;47256;18.904;-99.054;2023-04-28T23:15:56;34.40;38.40
61386;DHT22;47256;18.904;-99.054;2023-04-28T23:18:24;34.30;38.40
61386;DHT22;47256;18.904;-99.054;2023-04-28T23:20:51;34.30;38.10
61386;DHT22;47256;18.904;-99.054;2023-04-28T23:23:19;34.20;38.10
61386;DHT22;47256;18.904;-99.054;2023-04-28T23:25:46;34.00;38.40
61386;DHT22;47256;18.904;-99.054;2023-04-28T23:28:14;34.00;38.00
61386;DHT22;47256;18.904;-99.054;2023-04-28T23:30:42;34.00;38.10
61386;DHT22;47256;18.904;-99.054;2023-04-28T23:33:09;34.00;38.10
61386;DHT22;47256;18.904;-99.054;2023-04-28T23:35:39;33.90;37.90
61386;DHT22;47256;18.904;-99.054;2023-04-28T23:38:07;33.90;37.70
61386;DHT22;47256;18.904;-99.054;2023-04-28T23:40:35;33.80;37.30
61386;DHT22;47256;18.904;-99.054;2023-04-28T23:43:02;33.80;37.10
61386;DHT22;47256;18.904;-99.054;2023-04-28T23:45:29;33.70;37.50
61386;DHT22;47256;18.904;-99.054;2023-04-28T23:47:57;33.70;37.50
61386;DHT22;47256;18.904;-99.054;2023-04-28T23:50:24;33.60;37.80
61386;DHT22;47256;18.904;-99.054;2023-04-28T23:52:53;33.60;36.90
61386;DHT22;47256;18.904;-99.054;2023-04-28T23:55:20;33.60;36.70
61386;DHT22;47256;18.904;-99.054;2023-04-28T23:57:47;33.50;37.00
